Time;durP1;ratioP1;P1;durP2;ratioP2;P2;SDS_P1;SDS_P2;PMS_P1;PMS_P2;Temp;Humidity;BMP_temperature;BMP_pressure;BME280_temperature;BME280_humidity;BME280_pressure;Samples;Min_cycle;Max_cycle;Signal;HPM_P1;HPM_P2
2021/03/19 00:01:05;;;;;;;17.00;15.57;;;5.40;99.90;;;;;;5098540;28;20490;-67
2021/03/19 00:03:31;;;;;;;17.67;15.87;;;5.40;99.90;;;;;;5097433;28;20438;-66
2021/03/19 00:05:58;;;;;;;18.60;17.00;;;5.40;99.90;;;;;;5097546;28;20476;-66
2021/03/19 00:08:24;;;;;;;18.10;16.60;;;5.40;99.90;;;;;;5096497;28;20465;-67
2021/03/19 00:10:52;;;;;;;21.70;19.50;;;5.40;99.90;;;;;;5096828;28;20446;-66
2021/03/19 00:13:18;;;;;;;20.23;18.50;;;5.30;99.90;;;;;;5095003;28;20504;-68
2021/03/19 00:15:45;;;;;;;20.67;18.83;;;5.20;99.90;;;;;;5095941;28;20446;-67
2021/03/19 00:18:11;;;;;;;20.13;18.43;;;5.20;99.90;;;;;;5096289;28;20450;-66
2021/03/19 00:20:39;;;;;;;20.50;18.77;;;5.20;99.90;;;;;;5095342;28;20511;-67
2021/03/19 00:23:06;;;;;;;23.53;21.47;;;5.10;99.90;;;;;;5095707;28;20836;-66
2021/03/19 00:25:33;;;;;;;24.27;21.63;;;5.10;99.90;;;;;;5096742;28;20474;-66
2021/03/19 00:28:00;;;;;;;23.80;21.70;;;5.00;99.90;;;;;;5094937;28;20500;-67
2021/03/19 00:30:28;;;;;;;23.73;21.53;;;5.00;99.90;;;;;;5095347;28;20523;-66
2021/03/19 00:32:56;;;;;;;21.83;19.93;;;5.00;99.90;;;;;;5095085;28;20447;-67
2021/03/19 00:35:22;;;;;;;22.70;20.77;;;5.00;99.90;;;;;;5094842;28;20465;-67
2021/03/19 00:37:48;;;;;;;22.80;21.00;;;5.00;99.90;;;;;;5094968;28;20951;-66
2021/03/19 00:40:16;;;;;;;22.87;21.17;;;5.00;99.90;;;;;;5095052;28;20458;-66
2021/03/19 00:42:43;;;;;;;25.10;22.73;;;5.00;99.90;;;;;;5096113;28;20442;-66
2021/03/19 00:45:13;;;;;;;23.47;21.40;;;5.10;99.90;;;;;;5095710;28;20438;-67
2021/03/19 00:47:40;;;;;;;23.60;21.57;;;5.00;99.90;;;;;;5092401;28;20434;-66
2021/03/19 00:50:09;;;;;;;24.80;22.77;;;5.00;99.90;;;;;;5091409;28;20827;-65
2021/03/19 00:52:36;;;;;;;25.50;23.33;;;5.00;99.90;;;;;;5091553;28;20439;-65
2021/03/19 00:55:04;;;;;;;23.43;21.17;;;4.90;99.90;;;;;;5091377;28;20481;-65
2021/03/19 00:57:30;;;;;;;25.83;23.20;;;4.90;99.90;;;;;;5091555;28;20445;-66
2021/03/19 00:59:56;;;;;;;23.50;21.30;;;4.90;99.90;;;;;;5091464;28;20549;-65
2021/03/19 01:02:23;;;;;;;24.27;22.10;;;4.80;99.90;;;;;;5091683;28;20788;-66
2021/03/19 01:04:50;;;;;;;22.23;20.43;;;4.80;99.90;;;;;;5091243;28;20438;-66
2021/03/19 01:07:16;;;;;;;23.60;21.50;;;4.80;99.90;;;;;;5091391;28;20449;-65
2021/03/19 01:09:42;;;;;;;24.27;22.27;;;4.80;99.90;;;;;;5091354;28;20466;-65
2021/03/19 01:12:09;;;;;;;23.70;21.53;;;4.80;99.90;;;;;;5091350;28;20450;-65
2021/03/19 01:14:35;;;;;;;26.00;23.80;;;4.80;99.90;;;;;;5091146;28;21009;-66
2021/03/19 01:17:01;;;;;;;25.97;23.70;;;4.70;99.90;;;;;;5091416;28;20449;-65
2021/03/19 01:19:28;;;;;;;27.33;24.77;;;4.70;99.90;;;;;;5091298;28;20529;-66
2021/03/19 01:21:54;;;;;;;25.50;23.60;;;4.60;99.90;;;;;;5091216;28;20971;-66
2021/03/19 01:24:21;;;;;;;26.50;24.03;;;4.50;99.90;;;;;;5091087;28;20438;-65
2021/03/19 01:26:47;;;;;;;27.53;25.03;;;4.40;99.90;;;;;;5091138;28;20450;-66
2021/03/19 01:29:14;;;;;;;26.43;24.07;;;4.40;99.90;;;;;;5091190;28;20481;-65
2021/03/19 01:31:40;;;;;;;26.07;23.73;;;4.30;99.90;;;;;;5091247;28;20438;-66
2021/03/19 01:34:06;;;;;;;28.97;26.17;;;4.30;99.90;;;;;;5090830;28;20474;-66
2021/03/19 01:36:33;;;;;;;27.63;25.23;;;4.20;99.90;;;;;;5091088;28;20513;-66
2021/03/19 01:38:59;;;;;;;27.23;24.67;;;4.20;99.90;;;;;;5090998;28;20474;-65
2021/03/19 01:41:26;;;;;;;25.80;23.47;;;4.10;99.90;;;;;;5094716;28;20450;-65
2021/03/19 01:43:53;;;;;;;26.20;23.90;;;4.00;99.90;;;;;;5094533;28;20807;-66
2021/03/19 01:46:56;;;;;;;27.67;25.20;;;4.00;99.90;;;;;;5094699;28;20442;-65
2021/03/19 01:50:08;;;;;;;27.20;24.80;;;4.00;99.90;;;;;;5094311;28;20469;-66
2021/03/19 01:53:23;;;;;;;28.00;25.10;;;4.00;99.90;;;;;;5046549;28;20814;-65
2021/03/19 01:56:26;;;;;;;28.30;25.20;;;4.10;99.90;;;;;;5012154;28;20450;-66
2021/03/19 01:59:30;;;;;;;27.33;24.93;;;4.20;99.90;;;;;;5094263;28;20460;-66
2021/03/19 02:02:33;;;;;;;28.67;25.87;;;4.20;99.90;;;;;;5094307;28;20446;-64
2021/03/19 02:05:37;;;;;;;27.60;24.90;;;4.30;99.90;;;;;;5093974;28;20453;-66
2021/03/19 02:08:40;;;;;;;30.90;27.77;;;4.30;99.90;;;;;;5094201;28;20438;-65
2021/03/19 02:11:43;;;;;;;31.70;28.57;;;4.30;99.90;;;;;;5094242;28;20838;-65
2021/03/19 02:14:52;;;;;;;30.03;26.97;;;4.30;99.90;;;;;;5093788;28;20481;-66
2021/03/19 02:17:56;;;;;;;30.73;27.60;;;4.30;99.90;;;;;;5018619;28;20458;-66
2021/03/19 02:20:59;;;;;;;30.57;27.80;;;4.30;99.90;;;;;;5093860;28;20466;-66
2021/03/19 02:24:03;;;;;;;30.33;27.33;;;4.20;99.90;;;;;;5093712;28;20461;-66
2021/03/19 02:27:06;;;;;;;31.07;28.00;;;4.10;99.90;;;;;;5093902;28;20450;-65
2021/03/19 02:30:10;;;;;;;31.10;28.07;;;4.10;99.90;;;;;;5093721;28;20462;-65
2021/03/19 02:32:37;;;;;;;30.40;27.50;;;4.00;99.90;;;;;;5093616;28;20442;-65
2021/03/19 02:35:07;;;;;;;30.20;27.40;;;4.00;99.90;;;;;;5093511;28;20478;-65
2021/03/19 02:37:36;;;;;;;31.50;28.30;;;3.90;99.90;;;;;;5093839;28;20442;-65
2021/03/19 02:40:04;;;;;;;32.17;28.87;;;3.90;99.90;;;;;;5093576;28;20466;-65
2021/03/19 02:42:32;;;;;;;32.20;28.87;;;3.80;99.90;;;;;;5093775;28;20445;-66
2021/03/19 02:44:59;;;;;;;32.53;29.40;;;3.80;99.90;;;;;;5093480;28;20430;-66
2021/03/19 02:47:25;;;;;;;32.93;29.53;;;3.70;99.90;;;;;;5093463;28;20946;-65
2021/03/19 02:49:55;;;;;;;31.73;28.60;;;3.70;99.90;;;;;;5093311;28;20485;-65
2021/03/19 02:52:24;;;;;;;31.20;28.23;;;3.60;99.90;;;;;;5092859;28;20477;-65
2021/03/19 02:54:51;;;;;;;33.37;29.97;;;3.50;99.90;;;;;;5093083;28;20535;-64
2021/03/19 02:57:17;;;;;;;32.97;29.77;;;3.50;99.90;;;;;;5093230;28;20927;-66
2021/03/19 02:59:43;;;;;;;33.00;29.60;;;3.50;99.90;;;;;;5093377;28;20462;-66
2021/03/19 03:02:10;;;;;;;31.83;28.53;;;3.40;99.90;;;;;;5093192;28;20935;-66
2021/03/19 03:04:36;;;;;;;30.03;27.07;;;3.40;99.90;;;;;;5092812;28;20434;-66
2021/03/19 03:07:03;;;;;;;30.93;27.80;;;3.40;99.90;;;;;;5093042;28;20442;-66
2021/03/19 03:09:32;;;;;;;33.50;28.10;;;3.30;99.90;;;;;;5092953;28;20868;-66
2021/03/19 03:11:59;;;;;;;31.13;27.87;;;3.30;99.90;;;;;;5093081;28;20445;-66
2021/03/19 03:14:29;;;;;;;29.37;26.30;;;3.30;99.90;;;;;;5092579;28;21010;-66
2021/03/19 03:16:58;;;;;;;30.33;25.93;;;3.30;99.90;;;;;;5092982;28;20494;-65
2021/03/19 03:19:24;;;;;;;30.27;27.13;;;3.30;99.90;;;;;;5092696;28;20462;-66
2021/03/19 03:21:52;;;;;;;31.63;27.70;;;3.20;99.90;;;;;;5092791;28;20454;-65
2021/03/19 03:24:20;;;;;;;29.33;26.20;;;3.20;99.90;;;;;;5092459;28;20441;-65
2021/03/19 03:26:46;;;;;;;29.60;26.60;;;3.20;99.90;;;;;;5092728;28;20442;-65
2021/03/19 03:29:13;;;;;;;30.13;27.17;;;3.30;99.90;;;;;;5092520;28;20433;-66
2021/03/19 03:31:41;;;;;;;28.53;25.73;;;3.30;99.90;;;;;;5092729;28;20442;-66
2021/03/19 03:34:08;;;;;;;32.10;28.90;;;3.20;99.90;;;;;;5092120;28;20481;-66
2021/03/19 03:36:35;;;;;;;32.77;27.40;;;3.20;99.90;;;;;;5092645;28;20445;-65
2021/03/19 03:39:04;;;;;;;29.53;26.40;;;3.20;99.90;;;;;;5092609;28;20458;-66
2021/03/19 03:41:31;;;;;;;30.23;26.93;;;3.20;99.90;;;;;;5092490;28;20801;-66
2021/03/19 03:43:58;;;;;;;34.10;28.60;;;3.20;99.90;;;;;;5092205;28;20438;-66
2021/03/19 03:46:27;;;;;;;29.47;25.83;;;3.20;99.90;;;;;;5092300;28;20442;-65
2021/03/19 03:48:55;;;;;;;28.80;25.90;;;3.10;99.90;;;;;;5092165;28;20481;-66
2021/03/19 03:51:22;;;;;;;33.00;26.60;;;3.20;99.90;;;;;;5092282;28;20443;-65
2021/03/19 03:53:48;;;;;;;28.60;25.77;;;3.20;99.90;;;;;;5091842;28;20474;-66
2021/03/19 03:56:15;;;;;;;28.90;25.90;;;3.10;99.90;;;;;;5092147;28;20447;-65
2021/03/19 03:58:43;;;;;;;29.10;26.00;;;3.20;99.90;;;;;;5091733;28;20547;-65
2021/03/19 04:01:10;;;;;;;28.77;25.80;;;3.20;99.90;;;;;;5092058;28;20805;-66
2021/03/19 04:03:36;;;;;;;27.67;24.80;;;3.20;99.90;;;;;;5091173;28;20462;-66
2021/03/19 04:06:03;;;;;;;25.40;22.90;;;3.20;99.90;;;;;;5093579;28;20442;-68
2021/03/19 04:08:30;;;;;;;25.70;22.90;;;3.30;99.90;;;;;;5092821;28;20450;-67
2021/03/19 04:10:58;;;;;;;26.57;24.00;;;3.40;99.90;;;;;;5092512;28;20458;-65
2021/03/19 04:13:26;;;;;;;24.83;22.43;;;3.40;99.90;;;;;;5091835;28;20449;-65
2021/03/19 04:15:53;;;;;;;25.77;22.10;;;3.50;99.90;;;;;;5092017;28;20442;-67
2021/03/19 04:18:21;;;;;;;26.50;23.63;;;3.60;99.90;;;;;;5092643;28;20442;-65
2021/03/19 04:20:51;;;;;;;26.27;22.70;;;3.60;99.90;;;;;;5092384;28;20477;-66
2021/03/19 04:23:19;;;;;;;24.67;22.27;;;3.70;99.90;;;;;;5092383;28;20438;-65
2021/03/19 04:25:45;;;;;;;26.77;24.17;;;3.70;99.90;;;;;;5092403;28;20446;-65
2021/03/19 04:28:15;;;;;;;30.57;26.63;;;3.70;99.90;;;;;;5092004;28;20465;-65
2021/03/19 04:30:43;;;;;;;28.13;25.53;;;3.80;99.90;;;;;;5091912;28;20466;-64
2021/03/19 04:33:12;;;;;;;29.33;26.43;;;3.80;99.90;;;;;;5094843;28;20981;-64
2021/03/19 04:35:39;;;;;;;31.97;28.67;;;3.80;99.90;;;;;;5093234;28;20430;-65
2021/03/19 04:38:09;;;;;;;29.03;26.20;;;3.80;99.90;;;;;;5095848;28;20431;-66
2021/03/19 04:40:35;;;;;;;32.67;29.67;;;3.70;99.90;;;;;;5091728;28;21024;-66
2021/03/19 04:43:03;;;;;;;31.63;28.40;;;3.70;99.90;;;;;;5092359;28;20495;-64
2021/03/19 04:45:30;;;;;;;33.10;30.13;;;3.60;99.90;;;;;;5093107;28;20495;-66
2021/03/19 04:47:57;;;;;;;31.87;28.67;;;3.60;99.90;;;;;;5091841;28;20883;-66
2021/03/19 04:50:25;;;;;;;30.60;27.77;;;3.50;99.90;;;;;;5092052;28;21055;-65
2021/03/19 04:52:52;;;;;;;32.07;29.03;;;3.50;99.90;;;;;;5092768;28;20450;-63
2021/03/19 04:55:19;;;;;;;33.03;29.83;;;3.50;99.90;;;;;;5092907;28;20480;-65
2021/03/19 04:57:45;;;;;;;33.40;29.13;;;3.60;99.90;;;;;;5092507;28;20438;-66
2021/03/19 05:00:14;;;;;;;34.47;30.97;;;3.60;99.90;;;;;;5095057;28;20470;-66
2021/03/19 05:02:42;;;;;;;34.33;31.07;;;3.60;99.90;;;;;;5091372;28;20446;-65
2021/03/19 05:05:11;;;;;;;33.83;30.50;;;3.50;99.90;;;;;;5091386;28;20438;-66
2021/03/19 05:07:38;;;;;;;33.70;30.23;;;3.40;99.90;;;;;;5094186;28;20449;-65
2021/03/19 05:10:06;;;;;;;32.40;28.90;;;3.30;99.90;;;;;;5091598;28;20983;-66
2021/03/19 05:12:32;;;;;;;34.50;31.10;;;3.20;99.90;;;;;;5092505;28;20892;-67
2021/03/19 05:14:59;;;;;;;32.97;29.60;;;3.20;99.90;;;;;;5094903;28;20474;-62
2021/03/19 05:17:25;;;;;;;30.37;27.17;;;3.10;99.90;;;;;;5096823;28;20773;-65
2021/03/19 05:19:51;;;;;;;33.73;30.20;;;3.00;99.90;;;;;;5095418;28;20480;-64
2021/03/19 05:22:18;;;;;;;35.43;31.97;;;3.00;99.90;;;;;;5095362;28;20449;-65
2021/03/19 05:24:45;;;;;;;34.47;30.87;;;2.90;99.90;;;;;;5097655;28;20442;-66
2021/03/19 05:27:12;;;;;;;35.60;32.03;;;2.90;99.90;;;;;;5096282;28;20438;-65
2021/03/19 05:29:38;;;;;;;39.37;35.27;;;2.80;99.90;;;;;;5098161;28;20466;-66
2021/03/19 05:32:05;;;;;;;36.27;32.73;;;2.80;99.90;;;;;;5095140;28;20845;-65
2021/03/19 05:34:31;;;;;;;36.77;33.10;;;2.70;99.90;;;;;;5094762;28;20478;-65
2021/03/19 05:36:57;;;;;;;39.17;34.60;;;2.70;99.90;;;;;;5095257;28;20547;-62
2021/03/19 05:39:24;;;;;;;38.13;34.43;;;2.60;99.90;;;;;;5095291;28;20440;-65
2021/03/19 05:41:51;;;;;;;37.63;33.80;;;2.60;99.90;;;;;;5095037;28;21211;-66
2021/03/19 05:44:19;;;;;;;36.60;31.63;;;2.60;99.90;;;;;;5095188;28;20468;-65
2021/03/19 05:46:49;;;;;;;35.83;32.00;;;2.50;99.90;;;;;;5094560;28;20800;-66
2021/03/19 05:49:21;;;;;;;37.47;33.00;;;2.50;99.90;;;;;;5096586;28;20474;-66
2021/03/19 05:51:49;;;;;;;35.97;32.30;;;2.40;99.90;;;;;;5094150;28;20453;-67
2021/03/19 05:54:21;;;;;;;39.17;35.13;;;2.40;99.90;;;;;;5093687;28;20478;-66
2021/03/19 05:56:49;;;;;;;34.83;31.30;;;2.40;99.90;;;;;;5093592;28;20438;-65
2021/03/19 05:59:16;;;;;;;37.93;33.97;;;2.40;99.90;;;;;;5093617;28;20462;-64
2021/03/19 06:01:42;;;;;;;34.47;31.07;;;2.40;99.90;;;;;;5093736;28;20446;-65
2021/03/19 06:04:18;;;;;;;36.40;32.70;;;2.40;99.90;;;;;;5093392;28;20434;-65
2021/03/19 06:06:48;;;;;;;35.67;32.00;;;2.40;99.90;;;;;;5093577;28;20560;-66
2021/03/19 06:09:30;;;;;;;35.10;31.50;;;2.40;99.90;;;;;;5094202;28;20462;-65
2021/03/19 06:11:59;;;;;;;33.23;29.90;;;2.50;99.90;;;;;;5094385;28;20438;-64
2021/03/19 06:14:28;;;;;;;34.33;30.10;;;2.40;99.90;;;;;;5094309;28;20474;-64
2021/03/19 06:17:00;;;;;;;32.33;28.90;;;2.40;99.90;;;;;;5094459;28;20442;-65
2021/03/19 06:19:35;;;;;;;31.83;28.53;;;2.50;99.90;;;;;;5094292;28;20493;-67
2021/03/19 06:22:15;;;;;;;32.77;29.47;;;2.50;99.90;;;;;;5094153;28;20442;-65
2021/03/19 06:24:41;;;;;;;31.43;28.23;;;2.50;99.90;;;;;;5093880;28;20505;-65
2021/03/19 06:27:14;;;;;;;32.40;29.10;;;2.50;99.90;;;;;;5092971;28;20777;-66
2021/03/19 06:29:47;;;;;;;30.27;27.50;;;2.50;99.90;;;;;;5093709;28;20465;-66
2021/03/19 06:32:24;;;;;;;30.00;27.30;;;2.60;99.90;;;;;;5094882;28;20438;-67
2021/03/19 06:34:53;;;;;;;27.57;25.10;;;2.70;99.90;;;;;;5096615;28;20481;-67
2021/03/19 06:37:31;;;;;;;26.47;24.07;;;2.70;99.90;;;;;;5094128;28;20445;-65
2021/03/19 06:40:00;;;;;;;23.97;21.73;;;2.80;99.90;;;;;;5093916;28;20493;-66
2021/03/19 06:42:33;;;;;;;27.47;24.90;;;2.80;99.90;;;;;;5093626;28;20449;-66
2021/03/19 06:45:08;;;;;;;25.20;23.10;;;2.80;99.90;;;;;;5093471;28;20446;-66
2021/03/19 06:47:40;;;;;;;26.20;24.00;;;2.80;99.90;;;;;;5094924;28;20438;-67
2021/03/19 06:50:12;;;;;;;25.20;23.20;;;2.90;99.90;;;;;;5094132;28;20531;-67
2021/03/19 06:52:39;;;;;;;28.20;25.87;;;2.90;99.90;;;;;;5096777;28;20438;-67
2021/03/19 06:55:07;;;;;;;24.00;22.20;;;2.90;99.90;;;;;;5095872;28;20478;-67
2021/03/19 06:57:45;;;;;;;24.53;22.73;;;3.00;99.90;;;;;;5096804;28;20469;-67
2021/03/19 07:00:32;;;;;;;25.23;23.13;;;3.10;99.90;;;;;;5093799;28;20981;-66
2021/03/19 07:03:05;;;;;;;26.13;23.93;;;3.10;99.90;;;;;;5093324;28;20442;-66
2021/03/19 07:06:06;;;;;;;25.73;23.93;;;3.20;99.90;;;;;;5093326;28;20495;-66
2021/03/19 07:08:39;;;;;;;26.37;24.30;;;3.20;99.90;;;;;;5070285;28;20445;-67
2021/03/19 07:11:24;;;;;;;25.93;23.60;;;3.20;99.90;;;;;;5095272;28;20459;-68
2021/03/19 07:14:17;;;;;;;25.30;23.40;;;3.30;99.90;;;;;;5092955;28;20470;-66
2021/03/19 07:16:55;;;;;;;24.40;22.70;;;3.40;99.90;;;;;;5093043;28;20453;-65
2021/03/19 07:19:24;;;;;;;25.33;23.33;;;3.40;99.90;;;;;;5094561;28;20462;-65
2021/03/19 07:21:58;;;;;;;24.40;22.67;;;3.50;99.90;;;;;;5093385;28;20455;-67
2021/03/19 07:24:45;;;;;;;26.30;24.40;;;3.50;99.90;;;;;;5093028;28;20434;-66
2021/03/19 07:27:27;;;;;;;27.00;24.83;;;3.50;99.90;;;;;;5093289;28;20497;-67
2021/03/19 07:30:05;;;;;;;26.37;24.37;;;3.60;99.90;;;;;;5092942;28;20462;-66
2021/03/19 07:33:03;;;;;;;25.03;22.87;;;3.60;99.90;;;;;;5093658;28;20508;-65
2021/03/19 07:35:42;;;;;;;24.23;22.43;;;3.60;99.90;;;;;;5072470;28;20485;-67
2021/03/19 07:38:36;;;;;;;24.50;22.80;;;3.60;99.90;;;;;;5094059;28;20437;-67
2021/03/19 07:41:14;;;;;;;24.57;22.63;;;3.60;99.90;;;;;;5092561;28;20449;-66
2021/03/19 07:44:15;;;;;;;23.83;22.23;;;3.60;99.90;;;;;;5092827;28;20798;-65
2021/03/19 07:46:52;;;;;;;24.60;22.70;;;3.70;99.90;;;;;;5089586;28;20446;-68
2021/03/19 07:49:38;;;;;;;23.53;21.93;;;3.80;99.90;;;;;;5094150;28;20474;-67
2021/03/19 07:52:22;;;;;;;23.13;21.40;;;3.80;99.90;;;;;;5093198;28;20457;-67
2021/03/19 07:54:55;;;;;;;23.77;22.07;;;3.70;99.90;;;;;;5092189;28;20485;-66
2021/03/19 07:57:26;;;;;;;23.50;21.80;;;3.80;99.90;;;;;;5092580;28;20451;-67
2021/03/19 08:00:02;;;;;;;24.70;22.80;;;3.80;99.90;;;;;;5092830;28;20455;-65
2021/03/19 08:03:04;;;;;;;23.97;22.17;;;3.90;99.90;;;;;;5092215;28;20441;-66
2021/03/19 08:05:38;;;;;;;23.17;21.63;;;4.00;99.90;;;;;;5088468;28;20463;-66
2021/03/19 08:08:27;;;;;;;24.87;22.97;;;4.10;99.90;;;;;;5092902;28;20437;-65
2021/03/19 08:11:11;;;;;;;24.30;22.60;;;4.20;99.90;;;;;;5092216;28;20929;-65
2021/03/19 08:13:56;;;;;;;24.47;22.77;;;4.30;99.90;;;;;;5091617;28;20438;-66
2021/03/19 08:16:30;;;;;;;23.27;21.77;;;4.40;99.90;;;;;;5092573;28;20503;-67
2021/03/19 08:19:06;;;;;;;23.53;21.70;;;4.50;99.90;;;;;;5092146;28;20462;-66
2021/03/19 08:21:41;;;;;;;22.50;21.00;;;4.40;99.90;;;;;;5091616;28;20442;-66
2021/03/19 08:24:24;;;;;;;24.03;22.33;;;4.50;99.90;;;;;;5091821;28;20466;-65
2021/03/19 08:27:02;;;;;;;22.63;20.93;;;4.60;99.90;;;;;;5091615;28;20442;-66
2021/03/19 08:29:39;;;;;;;25.43;23.77;;;4.60;99.90;;;;;;5091660;28;20440;-66
2021/03/19 08:32:17;;;;;;;23.57;22.17;;;4.80;99.90;;;;;;5091515;28;20981;-66
2021/03/19 08:34:54;;;;;;;22.07;20.67;;;4.90;99.90;;;;;;5091264;28;20528;-66
2021/03/19 08:37:36;;;;;;;23.90;22.37;;;5.00;99.90;;;;;;5091768;28;20464;-66
2021/03/19 08:40:05;;;;;;;21.80;20.40;;;5.10;99.90;;;;;;5091609;28;20505;-66
2021/03/19 08:42:36;;;;;;;20.17;19.07;;;5.00;99.90;;;;;;5091429;28;20517;-66
2021/03/19 08:45:04;;;;;;;20.50;19.30;;;5.10;99.90;;;;;;5091816;28;20435;-67
2021/03/19 08:47:35;;;;;;;20.73;19.30;;;5.20;99.90;;;;;;5092036;28;20438;-65
2021/03/19 08:50:13;;;;;;;21.30;20.07;;;5.40;99.90;;;;;;5090705;28;20519;-66
2021/03/19 08:52:41;;;;;;;20.87;19.67;;;5.50;99.90;;;;;;5092539;28;20525;-66
2021/03/19 08:55:22;;;;;;;20.23;19.13;;;5.60;99.90;;;;;;5091351;28;20477;-66
2021/03/19 08:57:50;;;;;;;19.63;18.53;;;5.50;99.90;;;;;;5092507;28;20486;-68
2021/03/19 09:00:45;;;;;;;20.20;18.90;;;5.60;99.90;;;;;;5092726;28;20466;-65
2021/03/19 09:03:50;;;;;;;18.53;17.53;;;5.70;99.90;;;;;;5091146;28;20438;-63
2021/03/19 09:06:18;;;;;;;18.50;17.50;;;5.80;99.90;;;;;;5092455;28;20438;-66
2021/03/19 09:09:02;;;;;;;20.00;18.87;;;5.90;99.90;;;;;;5091237;28;20508;-66
2021/03/19 09:12:16;;;;;;;19.90;18.50;;;5.90;99.90;;;;;;5091239;28;20442;-66
2021/03/19 09:14:59;;;;;;;19.70;18.70;;;6.00;99.90;;;;;;5091789;28;20470;-67
2021/03/19 09:17:49;;;;;;;17.23;16.30;;;6.20;99.90;;;;;;5075469;28;20450;-66
2021/03/19 09:20:26;;;;;;;18.50;17.40;;;6.30;99.90;;;;;;5091253;28;20553;-66
2021/03/19 09:23:17;;;;;;;18.07;17.07;;;6.50;99.10;;;;;;5090967;28;20438;-66
2021/03/19 09:25:47;;;;;;;18.43;17.33;;;6.50;98.30;;;;;;5091105;28;20435;-66
2021/03/19 09:28:25;;;;;;;18.23;17.43;;;6.60;98.00;;;;;;5091094;28;20449;-66
2021/03/19 09:30:55;;;;;;;17.93;17.03;;;6.70;96.70;;;;;;5091197;28;20502;-66
2021/03/19 09:33:56;;;;;;;19.93;18.83;;;6.60;95.30;;;;;;5091299;28;20450;-67
2021/03/19 09:36:59;;;;;;;18.63;17.73;;;6.70;96.10;;;;;;5091094;28;20454;-66
2021/03/19 09:39:59;;;;;;;19.47;18.60;;;7.00;95.50;;;;;;5091254;28;20473;-65
2021/03/19 09:42:44;;;;;;;18.73;17.73;;;7.10;94.20;;;;;;5091218;28;20804;-66
2021/03/19 09:45:24;;;;;;;18.90;18.00;;;7.20;93.80;;;;;;5091939;28;20439;-67
2021/03/19 09:47:58;;;;;;;19.37;18.30;;;7.20;93.30;;;;;;5091591;28;20457;-68
2021/03/19 09:50:27;;;;;;;19.47;18.67;;;7.40;92.70;;;;;;5091843;28;20508;-66
2021/03/19 09:52:59;;;;;;;19.83;18.83;;;7.40;91.20;;;;;;5091343;28;20445;-67
2021/03/19 09:55:34;;;;;;;18.10;17.10;;;7.40;90.10;;;;;;5091293;28;20482;-68
2021/03/19 09:58:19;;;;;;;20.37;19.23;;;7.10;88.80;;;;;;5091592;28;20449;-66
2021/03/19 10:00:47;;;;;;;20.13;18.90;;;7.40;90.10;;;;;;5091907;28;20590;-67
2021/03/19 10:03:13;;;;;;;19.47;18.47;;;7.40;88.80;;;;;;5094133;28;20457;-66
2021/03/19 10:05:42;;;;;;;20.47;19.37;;;7.40;87.70;;;;;;5094928;28;20442;-67
2021/03/19 10:08:22;;;;;;;18.40;17.70;;;7.30;86.90;;;;;;5094843;28;20826;-67
2021/03/19 10:10:48;;;;;;;18.57;17.87;;;7.50;86.90;;;;;;5094277;28;20438;-64
2021/03/19 10:13:18;;;;;;;21.03;19.53;;;7.90;86.20;;;;;;5094224;28;20507;-66
2021/03/19 10:15:46;;;;;;;21.07;19.50;;;8.30;85.20;;;;;;5094381;28;20478;-66
2021/03/19 10:18:24;;;;;;;19.43;18.63;;;8.40;80.70;;;;;;5094275;28;20438;-67
2021/03/19 10:20:54;;;;;;;20.40;19.37;;;8.90;76.40;;;;;;5094127;28;20954;-67
2021/03/19 10:23:27;;;;;;;19.33;18.53;;;9.40;72.80;;;;;;5094405;28;20476;-65
2021/03/19 10:26:07;;;;;;;20.10;19.20;;;9.50;71.10;;;;;;5094419;28;20499;-66
2021/03/19 10:28:35;;;;;;;20.77;19.63;;;9.80;66.90;;;;;;5093860;28;20442;-64
2021/03/19 10:31:04;;;;;;;20.27;19.37;;;9.80;63.40;;;;;;5094434;28;20438;-65
2021/03/19 10:33:37;;;;;;;19.20;18.40;;;10.10;59.70;;;;;;5093986;28;20446;-66
2021/03/19 10:36:06;;;;;;;20.00;19.10;;;9.40;57.30;;;;;;5094575;28;20474;-67
2021/03/19 10:38:38;;;;;;;19.07;18.33;;;9.30;58.60;;;;;;5094961;28;20477;-65
2021/03/19 10:41:12;;;;;;;18.90;18.20;;;9.20;58.00;;;;;;5095063;28;20485;-66
2021/03/19 10:43:43;;;;;;;19.83;19.03;;;9.30;57.20;;;;;;5093838;28;20503;-65
2021/03/19 10:46:16;;;;;;;20.60;19.47;;;9.40;56.90;;;;;;5093867;28;20487;-64
2021/03/19 10:48:49;;;;;;;19.80;19.00;;;9.00;56.50;;;;;;5094116;28;20473;-66
2021/03/19 10:51:35;;;;;;;19.10;18.30;;;9.40;57.80;;;;;;5093550;28;20795;-64
2021/03/19 10:54:09;;;;;;;19.60;18.60;;;10.00;57.50;;;;;;5090048;28;20457;-65
2021/03/19 10:56:45;;;;;;;19.83;18.93;;;10.30;56.10;;;;;;5093474;28;20445;-65
2021/03/19 10:59:18;;;;;;;19.00;18.30;;;10.70;54.60;;;;;;5093841;28;20611;-66
2021/03/19 11:01:48;;;;;;;19.73;18.97;;;10.70;52.80;;;;;;5094168;28;20989;-64
2021/03/19 11:04:36;;;;;;;18.17;17.57;;;10.70;52.30;;;;;;5092983;28;20449;-65
2021/03/19 11:07:34;;;;;;;19.20;18.40;;;11.10;50.40;;;;;;5093607;28;20450;-67
2021/03/19 11:10:15;;;;;;;19.63;18.93;;;11.70;49.50;;;;;;5012912;28;20501;-65
2021/03/19 11:12:43;;;;;;;19.50;18.80;;;11.70;48.30;;;;;;5082175;28;20454;-66
2021/03/19 11:15:14;;;;;;;20.80;20.00;;;12.80;48.10;;;;;;5092721;28;21079;-63
2021/03/19 11:17:40;;;;;;;20.60;19.80;;;13.50;47.00;;;;;;5092967;28;20856;-65
2021/03/19 11:20:11;;;;;;;20.57;19.87;;;12.90;44.90;;;;;;5092809;28;20528;-65
2021/03/19 11:22:41;;;;;;;21.37;20.40;;;13.60;44.70;;;;;;5093940;28;20503;-66
2021/03/19 11:25:41;;;;;;;22.10;21.30;;;14.40;45.10;;;;;;5092804;28;20509;-61
2021/03/19 11:28:23;;;;;;;21.23;20.47;;;14.80;42.60;;;;;;5078481;28;20847;-63
2021/03/19 11:30:50;;;;;;;21.47;20.57;;;14.70;42.00;;;;;;5092680;28;20442;-65
2021/03/19 11:33:19;;;;;;;20.43;19.73;;;15.00;42.60;;;;;;5092375;28;20446;-63
2021/03/19 11:36:07;;;;;;;20.57;19.77;;;14.30;41.30;;;;;;5095009;28;20562;-65
2021/03/19 11:38:34;;;;;;;21.37;20.57;;;16.60;41.90;;;;;;5095761;28;20443;-62
2021/03/19 11:41:01;;;;;;;22.17;21.37;;;18.20;39.30;;;;;;5092583;28;20589;-64
2021/03/19 11:43:27;;;;;;;21.23;20.43;;;19.50;37.40;;;;;;5092218;28;20439;-64
2021/03/19 11:45:56;;;;;;;20.20;19.50;;;19.40;34.70;;;;;;5095004;28;20464;-63
2021/03/19 11:48:30;;;;;;;21.20;20.20;;;18.90;34.10;;;;;;5092260;28;20439;-64
2021/03/19 11:51:10;;;;;;;21.60;20.80;;;21.60;33.60;;;;;;5092160;28;20450;-63
2021/03/19 11:53:36;;;;;;;21.47;20.77;;;22.30;30.90;;;;;;5092292;28;20445;-63
2021/03/19 11:56:03;;;;;;;21.47;20.67;;;20.30;29.60;;;;;;5092090;28;20482;-63
2021/03/19 11:58:32;;;;;;;20.80;20.10;;;21.70;30.00;;;;;;5091966;28;20469;-63
2021/03/19 12:01:00;;;;;;;21.23;20.47;;;19.20;28.80;;;;;;5092069;28;20443;-64
2021/03/19 12:03:32;;;;;;;21.73;20.83;;;18.60;30.90;;;;;;5091902;28;20517;-64
2021/03/19 12:05:58;;;;;;;21.00;20.30;;;19.90;29.90;;;;;;5091833;28;20812;-63
2021/03/19 12:08:26;;;;;;;21.10;20.40;;;23.20;29.60;;;;;;5091922;28;20450;-63
2021/03/19 12:10:53;;;;;;;21.03;20.33;;;24.20;27.60;;;;;;5091891;28;20942;-63
2021/03/19 12:13:19;;;;;;;21.20;20.50;;;23.40;27.10;;;;;;5091739;28;20954;-63
2021/03/19 12:15:45;;;;;;;21.87;21.07;;;24.10;26.80;;;;;;5091653;28;20482;-64
2021/03/19 12:18:13;;;;;;;20.40;19.70;;;23.70;26.10;;;;;;5091713;28;20484;-64
2021/03/19 12:20:39;;;;;;;21.63;20.50;;;20.50;27.00;;;;;;5091696;28;20477;-64
2021/03/19 12:23:06;;;;;;;20.50;19.70;;;21.40;29.20;;;;;;5091461;28;20513;-64
2021/03/19 12:25:36;;;;;;;21.53;20.73;;;20.30;27.30;;;;;;5090741;28;20438;-64
2021/03/19 12:28:02;;;;;;;21.20;20.23;;;21.30;29.00;;;;;;5091813;28;20512;-65
2021/03/19 12:30:29;;;;;;;20.60;19.90;;;24.30;27.60;;;;;;5091670;28;20476;-63
2021/03/19 12:32:56;;;;;;;21.13;19.77;;;21.30;25.70;;;;;;5092004;28;20935;-64
2021/03/19 12:35:26;;;;;;;19.30;18.70;;;21.30;26.30;;;;;;5092090;28;20482;-64
2021/03/19 12:37:54;;;;;;;19.90;19.20;;;19.00;26.80;;;;;;5091760;28;20449;-63
2021/03/19 12:40:22;;;;;;;19.60;18.90;;;18.30;28.00;;;;;;5091409;28;20979;-64
2021/03/19 12:42:49;;;;;;;20.80;20.00;;;18.50;29.50;;;;;;5091299;28;20495;-64
2021/03/19 12:45:18;;;;;;;19.50;18.80;;;19.20;27.90;;;;;;5091405;28;20496;-64
2021/03/19 12:47:47;;;;;;;20.60;19.90;;;17.10;28.50;;;;;;5094006;28;20449;-64
2021/03/19 12:50:13;;;;;;;20.40;19.70;;;18.30;28.60;;;;;;5091203;28;20469;-65
2021/03/19 12:52:40;;;;;;;20.60;19.60;;;20.30;29.00;;;;;;5091290;28;20476;-64
2021/03/19 12:55:07;;;;;;;21.10;19.80;;;18.30;27.60;;;;;;5091291;28;20490;-63
2021/03/19 12:57:34;;;;;;;20.87;19.87;;;20.10;29.10;;;;;;5091254;28;20442;-64
2021/03/19 13:00:00;;;;;;;20.40;19.70;;;21.90;28.70;;;;;;5093581;28;20525;-63
2021/03/19 13:02:28;;;;;;;20.97;20.23;;;24.10;27.30;;;;;;5091186;28;20438;-63
2021/03/19 13:04:54;;;;;;;21.47;20.77;;;24.50;25.70;;;;;;5091156;28;20450;-64
2021/03/19 13:07:20;;;;;;;21.83;20.93;;;26.90;24.50;;;;;;5091216;28;20442;-63